createdAt,value
2023-02-08T00:04:10.978Z,68.11
2023-02-08T00:14:11.264Z,67.61
2023-02-08T00:24:10.992Z,67.39
2023-02-08T00:34:11.046Z,67.35
2023-02-08T00:44:11.012Z,67.21
2023-02-08T00:54:10.994Z,66.76
2023-02-08T01:04:11.092Z,66.38
2023-02-08T01:14:11.266Z,66.08
2023-02-08T01:24:11.020Z,65.92
2023-02-08T01:34:11.088Z,65.82
2023-02-08T01:44:11.052Z,65.64
2023-02-08T01:54:11.176Z,65.75
2023-02-08T02:04:11.275Z,65.60
2023-02-08T02:14:11.446Z,65.56
2023-02-08T02:24:12.181Z,65.59
2023-02-08T02:34:12.077Z,65.55
2023-02-08T02:44:12.199Z,65.39
2023-02-08T02:54:12.212Z,65.34
2023-02-08T03:04:12.201Z,65.40
2023-02-08T03:14:12.121Z,65.33
2023-02-08T03:24:12.169Z,65.00
2023-02-08T03:34:12.985Z,64.73
2023-02-08T03:44:13.210Z,64.33
2023-02-08T03:54:13.273Z,64.16
2023-02-08T04:04:13.334Z,64.03
2023-02-08T04:14:13.232Z,64.21
2023-02-08T04:24:13.267Z,64.33
2023-02-08T04:34:13.382Z,64.26
2023-02-08T04:44:14.355Z,64.26
2023-02-08T04:54:14.352Z,64.00
2023-02-08T05:04:14.205Z,63.69
2023-02-08T05:14:14.290Z,63.44
2023-02-08T05:24:14.405Z,63.02
2023-02-08T05:34:14.321Z,62.91
2023-02-08T05:44:14.370Z,62.82
2023-02-08T05:54:14.397Z,62.62
2023-02-08T06:04:14.384Z,62.41
2023-02-08T06:14:14.387Z,62.27
2023-02-08T06:24:16.093Z,62.08
2023-02-08T06:34:16.368Z,62.01
2023-02-08T06:44:16.522Z,62.07
2023-02-08T06:54:16.461Z,62.18
2023-02-08T07:04:16.457Z,62.32
2023-02-08T07:14:16.460Z,62.50
2023-02-08T07:24:16.476Z,62.59
2023-02-08T07:34:18.853Z,62.58
2023-02-08T07:44:19.434Z,62.76
2023-02-08T07:54:19.549Z,62.83
2023-02-08T08:04:21.723Z,62.77
2023-02-08T08:14:21.506Z,62.88
2023-02-08T08:24:21.504Z,62.94
2023-02-08T08:34:23.339Z,62.95
2023-02-08T08:44:23.550Z,62.82
2023-02-08T08:54:23.565Z,62.50
2023-02-08T09:04:23.483Z,62.35
2023-02-08T09:14:23.576Z,61.10
2023-02-08T09:24:23.668Z,58.54
2023-02-08T09:34:23.596Z,57.88
2023-02-08T09:44:23.740Z,57.70
2023-02-08T09:54:23.683Z,54.97
2023-02-08T10:04:23.611Z,53.80
2023-02-08T10:14:23.606Z,52.86
2023-02-08T10:24:23.716Z,51.15
2023-02-08T10:34:23.589Z,49.14
2023-02-08T10:44:24.896Z,47.85
2023-02-08T10:54:24.729Z,46.56
2023-02-08T11:04:24.697Z,45.38
2023-02-08T11:14:27.142Z,44.38
2023-02-08T11:24:26.984Z,43.12
2023-02-08T11:34:26.734Z,42.58
2023-02-08T11:44:26.889Z,42.46
2023-02-08T11:54:26.759Z,42.32
2023-02-08T12:04:26.797Z,42.26
2023-02-08T12:14:27.152Z,42.28
2023-02-08T12:24:27.800Z,42.08
2023-02-08T12:34:27.805Z,42.01
2023-02-08T12:44:27.868Z,42.07
2023-02-08T12:54:27.825Z,42.44
2023-02-08T13:04:27.804Z,42.26
2023-02-08T13:14:27.862Z,42.40
2023-02-08T13:24:28.225Z,42.51
2023-02-08T13:34:28.835Z,42.66
2023-02-08T13:44:28.819Z,41.95
2023-02-08T13:54:28.831Z,42.18
2023-02-08T14:04:28.948Z,41.83
2023-02-08T14:14:28.879Z,41.85
2023-02-08T14:24:31.065Z,41.96
2023-02-08T14:34:35.352Z,41.64
2023-02-08T14:44:35.943Z,41.67
2023-02-08T14:54:39.008Z,41.50
2023-02-08T15:04:38.954Z,41.63
2023-02-08T15:14:39.036Z,41.69
2023-02-08T15:24:39.000Z,41.90
2023-02-08T15:34:39.012Z,42.19
2023-02-08T15:44:38.983Z,42.47
2023-02-08T15:54:39.026Z,42.90
2023-02-08T16:04:39.027Z,43.17
2023-02-08T16:14:51.820Z,43.56
2023-02-08T16:24:41.041Z,44.06
2023-02-08T16:34:41.216Z,44.54
2023-02-08T16:44:41.127Z,45.05
2023-02-08T16:54:41.046Z,45.57
2023-02-08T17:04:41.175Z,45.92
2023-02-08T17:14:41.108Z,46.59
2023-02-08T17:24:41.278Z,46.82
2023-02-08T17:34:41.146Z,47.02
2023-02-08T17:44:41.120Z,47.42
2023-02-08T17:54:41.169Z,47.89
2023-02-08T18:04:41.200Z,48.42
2023-02-08T18:14:41.250Z,48.58
2023-02-08T18:24:41.167Z,48.77
2023-02-08T18:34:42.502Z,49.11
2023-02-08T18:44:42.232Z,49.26
2023-02-08T18:54:42.284Z,49.38
2023-02-08T19:04:42.298Z,49.64
2023-02-08T19:14:42.961Z,49.98
2023-02-08T19:24:43.307Z,50.21
2023-02-08T19:34:43.485Z,50.46
2023-02-08T19:44:43.259Z,50.60
2023-02-08T19:54:43.265Z,50.73
2023-02-08T20:04:43.435Z,50.85
2023-02-08T20:14:43.290Z,51.06
2023-02-08T20:24:43.332Z,51.22
2023-02-08T20:34:50.660Z,51.43
2023-02-08T20:44:45.394Z,51.53
2023-02-08T20:54:45.522Z,51.67
2023-02-08T21:04:45.390Z,51.86
2023-02-08T21:14:45.638Z,52.13
2023-02-08T21:24:45.436Z,52.30
2023-02-08T21:34:45.448Z,52.40
2023-02-08T21:44:45.428Z,52.67
2023-02-08T21:54:45.625Z,52.77
2023-02-08T22:04:46.153Z,52.98
2023-02-08T22:14:52.535Z,53.12
2023-02-08T22:24:52.458Z,53.32
2023-02-08T22:34:52.426Z,53.54
2023-02-08T22:44:52.608Z,53.80
2023-02-08T22:54:52.497Z,54.12
2023-02-08T23:04:52.473Z,54.29
2023-02-08T23:14:52.748Z,54.52
2023-02-08T23:24:53.705Z,54.73
2023-02-08T23:34:53.482Z,54.98
2023-02-08T23:44:53.629Z,55.21
2023-02-08T23:54:53.634Z,55.44
